createdAt,value
2023-02-19T00:01:27.886Z,5.98
2023-02-19T00:03:54.237Z,5.99
2023-02-19T00:06:20.601Z,5.98
2023-02-19T00:08:46.978Z,5.99
2023-02-19T00:11:13.335Z,5.99
2023-02-19T00:13:39.682Z,5.98
2023-02-19T00:16:06.051Z,5.98
2023-02-19T00:18:32.429Z,5.98
2023-02-19T00:20:59.012Z,5.97
2023-02-19T00:23:25.367Z,5.98
2023-02-19T00:25:51.732Z,5.98
2023-02-19T00:28:18.123Z,5.99
2023-02-19T00:30:44.747Z,5.97
2023-02-19T00:33:11.158Z,5.99
2023-02-19T00:35:37.522Z,6.01
2023-02-19T00:38:03.869Z,6.01
2023-02-19T00:40:30.221Z,5.98
2023-02-19T00:42:56.591Z,5.99
2023-02-19T00:45:22.941Z,6.01
2023-02-19T00:47:49.503Z,5.98
2023-02-19T00:50:15.869Z,5.99
2023-02-19T00:52:42.253Z,5.98
2023-02-19T00:55:08.634Z,5.98
2023-02-19T00:57:34.990Z,5.99
2023-02-19T01:00:01.346Z,5.98
2023-02-19T01:02:27.701Z,6.01
2023-02-19T01:04:54.083Z,5.98
2023-02-19T01:07:20.451Z,5.99
2023-02-19T01:09:46.799Z,6.01
2023-02-19T01:12:13.153Z,5.99
2023-02-19T01:14:39.524Z,5.98
2023-02-19T01:17:05.875Z,5.98
2023-02-19T01:19:32.216Z,5.97
2023-02-19T01:21:58.567Z,5.98
2023-02-19T01:24:24.913Z,5.99
2023-02-19T01:26:51.484Z,5.98
2023-02-19T01:29:17.843Z,5.97
2023-02-19T01:31:44.317Z,5.97
2023-02-19T01:34:10.763Z,5.99
2023-02-19T01:36:37.326Z,5.97
2023-02-19T01:39:03.680Z,5.98
2023-02-19T01:41:30.251Z,5.97
2023-02-19T01:43:56.935Z,5.99
2023-02-19T01:46:23.329Z,5.98
2023-02-19T01:48:49.709Z,5.99
2023-02-19T01:51:16.077Z,5.98
2023-02-19T01:53:42.429Z,5.97
2023-02-19T01:56:08.779Z,5.98
2023-02-19T01:58:35.144Z,5.99
2023-02-19T02:01:02.088Z,5.99
2023-02-19T02:03:28.471Z,5.98
2023-02-19T02:05:54.804Z,5.99
2023-02-19T02:08:21.149Z,5.98
2023-02-19T02:10:47.713Z,6.01
2023-02-19T02:13:14.091Z,6.01
2023-02-19T02:15:40.415Z,5.99
2023-02-19T02:18:06.750Z,5.99
2023-02-19T02:20:33.359Z,6.01
2023-02-19T02:22:59.700Z,6.02
2023-02-19T02:25:26.038Z,5.99
2023-02-19T02:27:52.384Z,5.97
2023-02-19T02:30:18.746Z,5.99
2023-02-19T02:32:45.095Z,6.02
2023-02-19T02:35:11.441Z,5.98
2023-02-19T02:37:37.998Z,5.99
2023-02-19T02:40:04.361Z,5.98
2023-02-19T02:42:30.904Z,5.98
2023-02-19T02:44:57.245Z,6.01
2023-02-19T02:47:23.793Z,6.01
2023-02-19T02:49:50.135Z,6.02
2023-02-19T02:52:16.478Z,6.01
2023-02-19T02:54:42.805Z,6.01
2023-02-19T02:57:09.136Z,6.01
2023-02-19T02:59:35.471Z,5.97
2023-02-19T03:02:01.950Z,6.01
2023-02-19T03:04:29.332Z,6.02
2023-02-19T03:06:55.877Z,5.98
2023-02-19T03:09:22.416Z,5.99
2023-02-19T03:11:48.752Z,6.01
2023-02-19T03:14:15.076Z,6.01
2023-02-19T03:16:42.917Z,5.99
2023-02-19T03:19:09.373Z,5.99
2023-02-19T03:21:35.724Z,5.98
2023-02-19T03:24:02.072Z,5.99
2023-02-19T03:26:28.421Z,5.99
2023-02-19T03:28:54.777Z,5.97
2023-02-19T03:31:21.235Z,5.98
2023-02-19T03:33:47.852Z,5.95
2023-02-19T03:36:14.419Z,5.98
2023-02-19T03:38:40.778Z,5.99
2023-02-19T03:41:07.143Z,5.98
2023-02-19T03:43:34.672Z,6.01
2023-02-19T03:46:01.152Z,5.97
2023-02-19T03:48:27.777Z,6.01
2023-02-19T03:50:54.132Z,5.98
2023-02-19T03:53:20.462Z,6.01
2023-02-19T03:55:46.818Z,6.01
2023-02-19T03:58:13.155Z,5.98
2023-02-19T04:00:39.690Z,6.01
2023-02-19T04:03:06.016Z,5.99
2023-02-19T04:05:32.576Z,6.01
2023-02-19T04:07:59.147Z,6.01
2023-02-19T04:10:25.521Z,5.97
2023-02-19T04:12:51.865Z,6.01
2023-02-19T04:15:18.403Z,5.99
2023-02-19T04:17:44.969Z,5.99
2023-02-19T04:20:11.316Z,6.01
2023-02-19T04:22:37.664Z,5.98
2023-02-19T04:25:04.020Z,5.98
2023-02-19T04:27:30.566Z,6.04
2023-02-19T04:29:56.922Z,6.01
2023-02-19T04:32:23.276Z,5.98
2023-02-19T04:34:49.640Z,6.01
2023-02-19T04:37:16.006Z,5.99
2023-02-19T04:39:43.283Z,6.02
2023-02-19T04:42:09.609Z,6.01
2023-02-19T04:44:35.936Z,5.99
2023-02-19T04:47:02.278Z,6.01
2023-02-19T04:49:28.840Z,5.99
2023-02-19T04:51:55.175Z,5.99
2023-02-19T04:54:21.736Z,5.99
2023-02-19T04:56:48.077Z,5.99
2023-02-19T04:59:14.433Z,5.99
2023-02-19T05:01:40.797Z,5.98
2023-02-19T05:04:07.180Z,5.99
2023-02-19T05:06:33.554Z,6.01
2023-02-19T05:09:00.137Z,6.01
2023-02-19T05:11:26.475Z,6.02
2023-02-19T05:13:52.838Z,5.99
2023-02-19T05:16:19.165Z,6.02
2023-02-19T05:18:45.499Z,6.01
2023-02-19T05:21:12.307Z,6.01
2023-02-19T05:23:39.030Z,6.01
2023-02-19T05:26:05.368Z,5.98
2023-02-19T05:28:31.720Z,5.99
2023-02-19T05:30:58.106Z,6.01
2023-02-19T05:33:24.496Z,6.02
2023-02-19T05:35:50.849Z,5.99
2023-02-19T05:38:17.395Z,5.99
2023-02-19T05:40:43.765Z,6.04
2023-02-19T05:43:10.338Z,6.01
2023-02-19T05:45:36.694Z,5.98
2023-02-19T05:48:03.044Z,6.01
2023-02-19T05:50:29.403Z,6.01
2023-02-19T05:52:55.768Z,6.04
2023-02-19T05:55:22.122Z,6.01
2023-02-19T05:57:48.465Z,6.02
2023-02-19T06:00:15.012Z,6.01
2023-02-19T06:02:41.412Z,6.01
2023-02-19T06:05:07.810Z,6.01
2023-02-19T06:07:34.163Z,6.01
2023-02-19T06:10:00.520Z,6.04
2023-02-19T06:12:26.875Z,6.01
2023-02-19T06:14:53.208Z,6.02
2023-02-19T06:17:19.572Z,5.99
2023-02-19T06:19:45.939Z,6.02
2023-02-19T06:22:12.520Z,5.99
2023-02-19T06:24:38.888Z,5.98
2023-02-19T06:27:05.236Z,6.02
2023-02-19T06:29:31.577Z,5.99
2023-02-19T06:31:58.062Z,6.01
2023-02-19T06:34:24.441Z,6.02
2023-02-19T06:36:50.807Z,6.01
2023-02-19T06:39:17.161Z,6.01
2023-02-19T06:41:43.528Z,5.99
2023-02-19T06:44:09.903Z,5.99
2023-02-19T06:46:36.265Z,6.01
2023-02-19T06:49:02.613Z,6.04
2023-02-19T06:51:28.937Z,6.01
2023-02-19T06:53:55.515Z,6.02
2023-02-19T06:56:22.083Z,6.01
2023-02-19T06:58:48.415Z,6.01
2023-02-19T07:01:14.806Z,5.99
2023-02-19T07:03:41.389Z,6.05
2023-02-19T07:06:07.719Z,6.02
2023-02-19T07:08:34.066Z,6.01
2023-02-19T07:11:00.631Z,6.02
2023-02-19T07:13:26.988Z,5.99
2023-02-19T07:15:53.306Z,6.01
2023-02-19T07:18:19.861Z,6.02
2023-02-19T07:20:46.229Z,6.04
2023-02-19T07:23:12.586Z,5.99
2023-02-19T07:25:38.931Z,6.01
2023-02-19T07:28:05.267Z,6.04
2023-02-19T07:30:31.657Z,6.02
2023-02-19T07:32:58.060Z,6.04
2023-02-19T07:35:24.439Z,6.04
2023-02-19T07:37:50.792Z,6.04
2023-02-19T07:40:17.357Z,6.04
2023-02-19T07:42:43.695Z,6.02
2023-02-19T07:45:10.045Z,6.04
2023-02-19T07:47:36.394Z,6.02
2023-02-19T07:50:02.740Z,6.04
2023-02-19T07:52:29.104Z,6.05
2023-02-19T07:54:55.672Z,6.04
2023-02-19T07:57:22.064Z,6.02
2023-02-19T07:59:48.609Z,6.04
2023-02-19T08:02:14.982Z,6.02
2023-02-19T08:04:42.180Z,6.02
2023-02-19T08:07:08.510Z,6.01
2023-02-19T08:09:34.841Z,6.01
2023-02-19T08:12:01.155Z,6.01
2023-02-19T08:14:27.527Z,6.02
2023-02-19T08:16:54.186Z,6.01
2023-02-19T08:19:20.614Z,6.05
2023-02-19T08:21:46.986Z,6.02
2023-02-19T08:24:13.601Z,6.04
2023-02-19T08:26:39.966Z,6.01
2023-02-19T08:29:06.322Z,5.99
2023-02-19T08:31:32.872Z,6.02
2023-02-19T08:33:59.269Z,5.99
2023-02-19T08:36:25.634Z,6.02
2023-02-19T08:38:51.988Z,6.01
2023-02-19T08:41:18.361Z,6.01
2023-02-19T08:43:44.706Z,6.01
2023-02-19T08:46:11.358Z,6.02
2023-02-19T08:48:37.745Z,6.02
2023-02-19T08:51:04.118Z,6.02
2023-02-19T08:53:30.494Z,6.01
2023-02-19T08:55:56.843Z,6.04
2023-02-19T08:58:23.188Z,6.02
2023-02-19T09:00:49.538Z,6.02
2023-02-19T09:03:15.872Z,6.04
2023-02-19T09:05:42.231Z,6.02
2023-02-19T09:08:08.561Z,6.04
2023-02-19T09:10:34.907Z,6.04
2023-02-19T09:13:01.254Z,6.02
2023-02-19T09:15:27.594Z,5.99
2023-02-19T09:17:53.962Z,6.02
2023-02-19T09:20:20.318Z,6.01
2023-02-19T09:22:46.673Z,6.01
2023-02-19T09:25:13.026Z,6.04
2023-02-19T09:27:39.361Z,6.01
2023-02-19T09:30:05.796Z,6.01
2023-02-19T09:32:32.199Z,6.02
2023-02-19T09:34:58.543Z,6.07
2023-02-19T09:37:24.882Z,6.02
2023-02-19T09:39:51.236Z,6.05
2023-02-19T09:42:17.562Z,6.05
2023-02-19T09:44:43.910Z,6.05
2023-02-19T09:47:10.254Z,6.04
2023-02-19T09:49:36.619Z,6.01
2023-02-19T09:52:02.985Z,6.08
2023-02-19T09:54:29.323Z,6.04
2023-02-19T09:56:55.687Z,6.05
2023-02-19T09:59:22.298Z,6.04
2023-02-19T10:01:48.682Z,6.04
2023-02-19T10:04:15.068Z,6.04
2023-02-19T10:06:41.407Z,6.05
2023-02-19T10:09:07.973Z,6.02
2023-02-19T10:11:34.524Z,6.07
2023-02-19T10:14:00.863Z,6.02
2023-02-19T10:16:29.050Z,6.02
2023-02-19T10:18:55.468Z,6.04
2023-02-19T10:21:22.024Z,6.02
2023-02-19T10:23:48.356Z,6.01
2023-02-19T10:26:14.699Z,6.05
2023-02-19T10:28:41.051Z,6.04
2023-02-19T10:31:07.659Z,6.04
2023-02-19T10:33:34.016Z,6.02
2023-02-19T10:36:00.568Z,6.07
2023-02-19T10:38:26.922Z,6.04
2023-02-19T10:40:53.271Z,6.05
2023-02-19T10:43:19.634Z,6.05
2023-02-19T10:45:45.985Z,6.05
2023-02-19T10:48:12.313Z,6.04
2023-02-19T10:50:38.652Z,6.02
2023-02-19T10:53:05.083Z,6.02
2023-02-19T10:55:31.644Z,6.02
2023-02-19T10:57:58.213Z,6.05
2023-02-19T11:00:24.554Z,6.05
2023-02-19T11:02:50.886Z,6.04
2023-02-19T11:05:17.232Z,6.07
2023-02-19T11:07:43.614Z,6.02
2023-02-19T11:10:10.169Z,6.05
2023-02-19T11:12:36.503Z,6.05
2023-02-19T11:15:02.855Z,6.04
2023-02-19T11:17:29.206Z,6.02
2023-02-19T11:19:55.547Z,6.02
2023-02-19T11:22:21.892Z,6.04
2023-02-19T11:24:48.227Z,6.04
2023-02-19T11:27:14.553Z,6.04
2023-02-19T11:29:40.890Z,6.04
2023-02-19T11:32:07.753Z,6.05
2023-02-19T11:34:34.133Z,6.04
2023-02-19T11:37:00.677Z,6.04
2023-02-19T11:39:27.065Z,6.05
2023-02-19T11:41:53.638Z,6.05
2023-02-19T11:44:19.965Z,6.02
2023-02-19T11:46:46.325Z,6.04
2023-02-19T11:49:12.915Z,6.04
2023-02-19T11:51:39.248Z,6.08
2023-02-19T11:54:05.812Z,6.07
2023-02-19T11:56:32.136Z,6.08
2023-02-19T11:59:00.421Z,6.05
2023-02-19T12:01:27.355Z,6.09
2023-02-19T12:03:53.948Z,6.07
2023-02-19T12:06:20.542Z,6.08
2023-02-19T12:08:46.926Z,6.08
2023-02-19T12:11:13.269Z,6.08
2023-02-19T12:13:39.622Z,6.04
2023-02-19T12:16:06.011Z,6.04
2023-02-19T12:18:33.929Z,6.07
2023-02-19T12:21:00.976Z,6.08
2023-02-19T12:23:27.424Z,6.09
2023-02-19T12:25:54.003Z,6.08
2023-02-19T12:28:20.365Z,6.05
2023-02-19T12:30:46.976Z,6.07
2023-02-19T12:33:13.327Z,6.05
2023-02-19T12:35:39.669Z,6.05
2023-02-19T12:38:06.223Z,6.07
2023-02-19T12:40:35.595Z,6.08
2023-02-19T12:43:01.969Z,6.07
2023-02-19T12:45:28.298Z,6.07
2023-02-19T12:47:54.634Z,6.07
2023-02-19T12:50:21.035Z,6.09
2023-02-19T12:52:47.384Z,6.08
2023-02-19T12:55:13.773Z,6.08
2023-02-19T12:57:40.103Z,6.08
2023-02-19T13:00:06.442Z,6.08
2023-02-19T13:02:32.812Z,6.05
2023-02-19T13:04:59.157Z,6.07
2023-02-19T13:07:25.999Z,6.08
2023-02-19T13:09:52.360Z,6.11
2023-02-19T13:12:18.716Z,6.08
2023-02-19T13:14:45.095Z,6.07
2023-02-19T13:17:11.674Z,6.07
2023-02-19T13:19:38.228Z,6.08
2023-02-19T13:22:04.566Z,6.08
2023-02-19T13:24:31.133Z,6.08
2023-02-19T13:26:57.466Z,6.08
2023-02-19T13:29:23.815Z,6.08
2023-02-19T13:31:50.201Z,6.09
2023-02-19T13:34:19.538Z,6.07
2023-02-19T13:36:48.629Z,6.05
2023-02-19T13:41:42.452Z,6.05
2023-02-19T13:44:08.798Z,6.07
2023-02-19T13:46:35.365Z,6.08
2023-02-19T13:49:02.184Z,6.07
2023-02-19T13:51:28.537Z,6.05
2023-02-19T13:53:54.891Z,6.05
2023-02-19T13:56:21.272Z,6.05
2023-02-19T13:58:47.614Z,6.05
2023-02-19T14:01:16.428Z,6.07
2023-02-19T14:03:42.802Z,6.05
2023-02-19T14:06:09.169Z,6.05
2023-02-19T14:08:35.523Z,6.08
2023-02-19T14:11:01.855Z,6.07
2023-02-19T14:13:28.223Z,6.05
2023-02-19T14:15:54.590Z,6.07
2023-02-19T14:18:20.948Z,6.07
2023-02-19T14:20:47.294Z,6.07
2023-02-19T14:23:13.622Z,6.09
2023-02-19T14:25:39.962Z,6.05
2023-02-19T14:28:06.299Z,6.07
2023-02-19T14:30:32.677Z,6.07
2023-02-19T14:33:10.145Z,6.07
2023-02-19T14:35:37.444Z,6.04
2023-02-19T14:38:03.794Z,6.07
2023-02-19T14:40:30.147Z,6.08
2023-02-19T14:42:57.446Z,6.09
2023-02-19T14:45:23.819Z,6.07
2023-02-19T14:47:50.151Z,6.09
2023-02-19T14:50:16.507Z,6.07
2023-02-19T14:52:43.067Z,6.07
2023-02-19T14:55:09.613Z,6.09
2023-02-19T14:57:35.937Z,6.08
2023-02-19T15:00:02.558Z,6.05
2023-02-19T15:02:28.908Z,6.07
2023-02-19T15:04:55.539Z,6.05
2023-02-19T15:07:22.201Z,6.07
2023-02-19T15:09:48.572Z,6.09
2023-02-19T15:12:14.921Z,6.05
2023-02-19T15:14:41.938Z,6.08
2023-02-19T15:17:08.296Z,6.05
2023-02-19T15:19:34.656Z,6.05
2023-02-19T15:22:01.020Z,6.07
2023-02-19T15:24:27.605Z,6.07
2023-02-19T15:26:53.937Z,6.08
2023-02-19T15:29:20.288Z,6.05
2023-02-19T15:31:46.725Z,6.08
2023-02-19T15:34:13.143Z,6.08
2023-02-19T15:36:39.697Z,6.07
2023-02-19T15:39:06.085Z,6.08
2023-02-19T15:41:32.637Z,6.07
2023-02-19T15:43:59.015Z,6.05
2023-02-19T15:46:25.437Z,6.07
2023-02-19T15:48:51.779Z,6.07
2023-02-19T15:51:18.145Z,6.07
2023-02-19T15:53:44.483Z,6.09
2023-02-19T15:56:10.834Z,6.07
2023-02-19T15:58:37.179Z,6.09
2023-02-19T16:01:03.536Z,6.07
2023-02-19T16:03:30.075Z,6.07
2023-02-19T16:05:56.415Z,6.08
2023-02-19T16:08:22.949Z,6.08
2023-02-19T16:10:49.512Z,6.05
2023-02-19T16:13:16.212Z,6.07
2023-02-19T16:15:42.570Z,6.07
2023-02-19T16:18:09.116Z,6.08
2023-02-19T16:20:35.453Z,6.08
2023-02-19T16:23:02.025Z,6.07
2023-02-19T16:25:28.355Z,6.07
2023-02-19T16:27:57.597Z,6.08
2023-02-19T16:30:23.996Z,6.09
2023-02-19T16:32:50.580Z,6.05
2023-02-19T16:35:16.959Z,6.08
2023-02-19T16:37:43.337Z,6.08
2023-02-19T16:40:09.691Z,6.07
2023-02-19T16:42:36.032Z,6.07
2023-02-19T16:45:02.387Z,6.05
2023-02-19T16:47:28.727Z,6.09
2023-02-19T16:49:55.282Z,6.07
2023-02-19T16:52:21.853Z,6.08
2023-02-19T16:54:48.219Z,6.05
2023-02-19T16:57:14.793Z,6.05
2023-02-19T16:59:41.142Z,6.08
2023-02-19T17:02:07.486Z,6.07
2023-02-19T17:04:34.022Z,6.04
2023-02-19T17:07:00.345Z,6.05
2023-02-19T17:09:26.686Z,6.04
2023-02-19T17:11:53.032Z,6.05
2023-02-19T17:14:19.616Z,6.08
2023-02-19T17:16:46.256Z,6.05
2023-02-19T17:19:12.634Z,6.05
2023-02-19T17:21:38.960Z,6.04
2023-02-19T17:24:05.285Z,6.05
2023-02-19T17:26:31.616Z,6.07
2023-02-19T17:28:57.996Z,6.07
2023-02-19T17:31:24.694Z,6.07
2023-02-19T17:33:51.111Z,6.04
2023-02-19T17:36:17.742Z,6.08
2023-02-19T17:38:44.105Z,6.07
2023-02-19T17:41:10.958Z,6.07
2023-02-19T17:43:37.502Z,6.07
2023-02-19T17:46:04.127Z,6.08
2023-02-19T17:48:30.511Z,6.05
2023-02-19T17:50:56.839Z,6.05
2023-02-19T17:53:23.179Z,6.08
2023-02-19T17:55:49.520Z,6.04
2023-02-19T17:58:15.852Z,6.05
2023-02-19T18:00:42.330Z,6.05
2023-02-19T18:03:08.908Z,6.08
2023-02-19T18:05:35.261Z,6.05
2023-02-19T18:08:04.527Z,6.07
2023-02-19T18:10:31.067Z,6.08
2023-02-19T18:12:57.413Z,6.07
2023-02-19T18:15:23.998Z,6.05
2023-02-19T18:17:50.329Z,6.07
2023-02-19T18:20:16.708Z,6.08
2023-02-19T18:22:43.070Z,6.07
2023-02-19T18:25:09.444Z,6.05
2023-02-19T18:27:35.803Z,6.08
2023-02-19T18:30:04.157Z,6.07
2023-02-19T18:32:30.525Z,6.07
2023-02-19T18:34:56.862Z,6.05
2023-02-19T18:37:23.217Z,6.09
2023-02-19T18:39:49.572Z,6.05
2023-02-19T18:42:15.924Z,6.05
2023-02-19T18:44:42.276Z,6.05
2023-02-19T18:47:08.630Z,6.02
2023-02-19T18:49:34.959Z,6.05
2023-02-19T18:52:01.295Z,6.04
2023-02-19T18:54:27.642Z,6.04
2023-02-19T18:56:53.980Z,6.05
2023-02-19T18:59:20.313Z,6.05
2023-02-19T19:01:46.811Z,6.04
2023-02-19T19:04:13.210Z,6.07
2023-02-19T19:06:39.881Z,6.04
2023-02-19T19:09:06.257Z,6.02
2023-02-19T19:11:32.815Z,6.05
2023-02-19T19:13:59.144Z,6.05
2023-02-19T19:16:25.700Z,6.05
2023-02-19T19:18:52.062Z,6.07
2023-02-19T19:21:18.440Z,6.07
2023-02-19T19:23:44.788Z,6.08
2023-02-19T19:26:12.043Z,6.07
2023-02-19T19:28:40.539Z,6.07
2023-02-19T19:31:07.060Z,6.07
2023-02-19T19:33:33.646Z,6.04
2023-02-19T19:36:00.229Z,6.05
2023-02-19T19:38:26.870Z,6.05
2023-02-19T19:40:53.200Z,6.04
2023-02-19T19:43:19.535Z,6.07
2023-02-19T19:45:45.863Z,6.05
2023-02-19T19:48:12.425Z,6.04
2023-02-19T19:50:38.781Z,6.05
2023-02-19T19:53:05.119Z,6.04
2023-02-19T19:55:31.480Z,6.05
2023-02-19T19:57:57.831Z,6.07
2023-02-19T20:00:24.789Z,6.04
2023-02-19T20:02:51.191Z,6.05
2023-02-19T20:05:17.601Z,6.05
2023-02-19T20:07:44.181Z,6.04
2023-02-19T20:10:10.542Z,6.05
2023-02-19T20:12:37.087Z,6.05
2023-02-19T20:15:03.426Z,6.04
2023-02-19T20:17:29.996Z,6.07
2023-02-19T20:19:56.345Z,6.08
2023-02-19T20:22:23.784Z,6.05
2023-02-19T20:24:50.143Z,6.05
2023-02-19T20:27:16.509Z,6.05
2023-02-19T20:29:42.868Z,6.04
2023-02-19T20:32:09.270Z,6.04
2023-02-19T20:34:35.618Z,6.04
2023-02-19T20:37:02.174Z,6.04
2023-02-19T20:39:28.508Z,6.07
2023-02-19T20:41:54.862Z,6.05
2023-02-19T20:44:21.210Z,6.05
2023-02-19T20:46:47.597Z,6.05
2023-02-19T20:49:13.954Z,6.05
2023-02-19T20:51:40.308Z,6.04
2023-02-19T20:54:06.638Z,6.04
2023-02-19T20:56:32.969Z,6.02
2023-02-19T20:58:59.314Z,6.05
2023-02-19T21:01:25.672Z,6.02
2023-02-19T21:03:52.035Z,6.04
2023-02-19T21:06:18.402Z,6.05
2023-02-19T21:08:44.743Z,6.04
2023-02-19T21:11:11.112Z,6.05
2023-02-19T21:13:37.667Z,6.05
2023-02-19T21:16:04.047Z,6.05
2023-02-19T21:18:30.443Z,6.05
2023-02-19T21:20:56.775Z,6.02
2023-02-19T21:23:23.122Z,6.07
2023-02-19T21:25:49.466Z,6.04
2023-02-19T21:28:15.799Z,6.05
2023-02-19T21:30:42.211Z,6.05
2023-02-19T21:33:09.724Z,6.04
2023-02-19T21:35:36.077Z,6.05
2023-02-19T21:38:02.396Z,6.04
2023-02-19T21:40:28.749Z,6.05
2023-02-19T21:42:55.297Z,6.05
2023-02-19T21:45:21.643Z,6.07
2023-02-19T21:47:48.176Z,6.05
2023-02-19T21:50:14.758Z,6.05
2023-02-19T21:52:41.298Z,6.05
2023-02-19T21:55:07.891Z,6.05
2023-02-19T21:57:34.235Z,6.05
2023-02-19T22:00:00.601Z,6.04
2023-02-19T22:02:27.173Z,6.05
2023-02-19T22:04:53.545Z,6.04
2023-02-19T22:07:19.903Z,6.04
2023-02-19T22:09:46.245Z,6.04
2023-02-19T22:12:12.577Z,6.04
2023-02-19T22:14:38.908Z,6.04
2023-02-19T22:17:05.254Z,6.04
2023-02-19T22:19:32.066Z,6.02
2023-02-19T22:21:58.405Z,6.04
2023-02-19T22:24:24.753Z,6.05
2023-02-19T22:26:51.319Z,6.04
2023-02-19T22:29:17.677Z,6.04
2023-02-19T22:31:44.311Z,6.04
2023-02-19T22:34:10.762Z,6.05
2023-02-19T22:36:37.383Z,6.04
2023-02-19T22:39:03.763Z,6.05
2023-02-19T22:41:30.122Z,6.02
2023-02-19T22:43:56.513Z,6.04
2023-02-19T22:46:22.862Z,6.05
2023-02-19T22:48:49.191Z,6.02
2023-02-19T22:51:15.514Z,6.04
2023-02-19T22:53:42.075Z,6.04
2023-02-19T22:56:08.409Z,6.05
2023-02-19T22:58:34.961Z,6.02
2023-02-19T23:01:01.329Z,6.07
2023-02-19T23:03:27.695Z,6.01
2023-02-19T23:05:54.026Z,6.05
2023-02-19T23:08:20.372Z,6.01
2023-02-19T23:10:46.709Z,6.04
2023-02-19T23:13:13.025Z,6.02
2023-02-19T23:15:39.379Z,6.05
2023-02-19T23:18:05.712Z,6.08
2023-02-19T23:20:32.044Z,6.02
2023-02-19T23:22:58.381Z,6.02
2023-02-19T23:25:24.744Z,6.01
2023-02-19T23:27:51.104Z,6.04
2023-02-19T23:30:17.492Z,6.01
2023-02-19T23:32:43.842Z,6.01
2023-02-19T23:35:10.193Z,6.04
2023-02-19T23:37:36.531Z,6.02
2023-02-19T23:40:02.871Z,6.04
2023-02-19T23:42:29.252Z,6.04
2023-02-19T23:44:55.805Z,6.05
2023-02-19T23:47:22.357Z,6.04
2023-02-19T23:49:48.721Z,6.04
2023-02-19T23:52:15.058Z,6.04
2023-02-19T23:54:41.627Z,6.02
2023-02-19T23:57:07.991Z,6.04
2023-02-19T23:59:34.335Z,6.04
